Time;durP1;ratioP1;P1;durP2;ratioP2;P2;SDS_P1;SDS_P2;PMS_P1;PMS_P2;Temp;Humidity;BMP_temperature;BMP_pressure;BME280_temperature;BME280_humidity;BME280_pressure;Samples;Min_cycle;Max_cycle;Signal;HPM_P1;HPM_P2
2022/02/10 00:07:09;;;;;;;103.07;65.18;;;;;;;;;;5014765;28;20072;-76
2022/02/10 00:18:10;;;;;;;177.23;106.55;;;;;;;;;;5014620;28;20037;-77
2022/02/10 00:20:37;;;;;;;143.80;88.53;;;;;;;;;;5017550;28;20025;-77
2022/02/10 00:23:18;;;;;;;126.15;83.10;;;;;;;;;;5022568;28;20392;-76
2022/02/10 00:36:36;;;;;;;123.75;84.03;;;;;;;;;;5030604;28;20028;-76
2022/02/10 00:39:04;;;;;;;125.60;82.60;;;;;;;;;;4996694;28;20088;-77
2022/02/10 00:41:31;;;;;;;123.35;79.63;;;;;;;;;;5014238;28;20486;-77
2022/02/10 00:43:57;;;;;;;151.15;97.65;;;;;;;;;;5001688;28;20110;-77
2022/02/10 00:46:23;;;;;;;193.20;118.82;;;;;;;;;;5012473;28;20022;-77
2022/02/10 00:48:49;;;;;;;192.68;120.25;;;;;;;;;;5011883;28;21187;-76
2022/02/10 00:51:15;;;;;;;166.75;102.53;;;;;;;;;;5015196;28;20034;-77
2022/02/10 00:53:43;;;;;;;175.30;112.10;;;;;;;;;;5032703;28;20026;-77
2022/02/10 00:56:10;;;;;;;178.98;107.57;;;;;;;;;;5033144;28;20021;-76
2022/02/10 00:58:39;;;;;;;161.32;95.35;;;;;;;;;;5008632;28;20113;-77
2022/02/10 01:30:32;;;;;;;149.90;97.15;;;;;;;;;;5020963;28;20511;-76
2022/02/10 01:33:02;;;;;;;153.10;98.05;;;;;;;;;;5031678;28;20029;-78
2022/02/10 01:35:28;;;;;;;171.27;111.82;;;;;;;;;;5032266;28;20013;-75
2022/02/10 01:37:55;;;;;;;192.95;128.98;;;;;;;;;;5032160;28;20029;-75
2022/02/10 01:41:01;;;;;;;208.57;140.50;;;;;;;;;;5031731;28;20469;-77
2022/02/10 02:04:56;;;;;;;204.07;131.88;;;;;;;;;;5019328;28;20390;-76
2022/02/10 02:07:28;;;;;;;210.02;129.10;;;;;;;;;;5013042;28;20026;-76
2022/02/10 02:09:54;;;;;;;203.73;137.68;;;;;;;;;;4994940;28;20022;-76
2022/02/10 02:12:20;;;;;;;196.13;130.02;;;;;;;;;;5012610;28;20045;-77
2022/02/10 02:14:46;;;;;;;192.43;133.35;;;;;;;;;;5012462;28;20473;-77
2022/02/10 02:17:13;;;;;;;207.48;137.18;;;;;;;;;;5012570;28;20076;-77
2022/02/10 02:19:39;;;;;;;204.02;133.68;;;;;;;;;;5012606;28;20105;-77
2022/02/10 02:22:08;;;;;;;200.85;121.75;;;;;;;;;;5012415;28;20022;-76
2022/02/10 02:24:35;;;;;;;202.40;124.32;;;;;;;;;;5019492;28;20041;-77
2022/02/10 02:27:04;;;;;;;196.45;121.15;;;;;;;;;;5013441;28;20087;-77
2022/02/10 02:29:42;;;;;;;191.02;121.95;;;;;;;;;;5030716;28;20024;-76
2022/02/10 02:32:29;;;;;;;185.02;122.25;;;;;;;;;;5012338;28;20036;-77
2022/02/10 03:04:00;;;;;;;150.40;98.57;;;;;;;;;;5012313;28;20025;-77
2022/02/10 03:05:09;;;;;;;141.60;86.97;;;;;;;;;;5035864;28;20036;-76
2022/02/10 03:07:44;;;;;;;116.82;72.75;;;;;;;;;;5018605;28;20022;-76
2022/02/10 03:12:45;;;;;;;92.15;59.97;;;;;;;;;;5018190;28;20551;-77
2022/02/10 03:18:21;;;;;;;99.30;61.25;;;;;;;;;;4966150;28;20114;-78
2022/02/10 04:58:43;;;;;;;259.85;180.27;;;;;;;;;;5026349;28;20388;-76
2022/02/10 05:01:34;;;;;;;212.65;149.55;;;;;;;;;;5027329;28;20068;-75
2022/02/10 05:13:02;;;;;;;190.85;135.63;;;;;;;;;;5013310;28;20048;-75
2022/02/10 05:35:51;;;;;;;194.90;121.85;;;;;;;;;;5019378;28;20034;-76
2022/02/10 05:38:42;;;;;;;206.32;137.63;;;;;;;;;;5013003;28;20022;-77
2022/02/10 05:46:20;;;;;;;212.18;128.13;;;;;;;;;;5012714;28;20068;-77
2022/02/10 06:49:31;;;;;;;218.82;143.75;;;;;;;;;;5004231;28;20036;-75
2022/02/10 06:54:42;;;;;;;221.20;148.43;;;;;;;;;;5012971;28;20493;-76
2022/02/10 07:49:06;;;;;;;187.90;121.88;;;;;;;;;;5015024;28;20057;-76
2022/02/10 08:17:55;;;;;;;198.73;128.93;;;;;;;;;;5032042;28;20036;-75
2022/02/10 08:56:30;;;;;;;65.25;46.42;;;;;;;;;;5026747;28;20030;-85
2022/02/10 08:59:12;;;;;;;68.97;48.10;;;;;;;;;;5011247;28;20490;-82
2022/02/10 09:20:21;;;;;;;59.55;33.90;;;;;;;;;;5028286;28;20060;-86
2022/02/10 10:00:59;;;;;;;49.65;29.10;;;;;;;;;;5013300;28;20033;-81
2022/02/10 10:03:36;;;;;;;54.83;35.05;;;;;;;;;;5007561;28;20117;-80
2022/02/10 10:14:11;;;;;;;43.33;26.88;;;;;;;;;;5030748;28;20096;-79
2022/02/10 10:16:54;;;;;;;41.63;25.33;;;;;;;;;;5849967;23;20246;-96
2022/02/10 10:22:29;;;;;;;38.88;26.73;;;;;;;;;;4990307;28;20031;-78
2022/02/10 10:53:35;;;;;;;46.85;31.77;;;;;;;;;;4991916;28;20217;-79
2022/02/10 10:58:45;;;;;;;41.50;31.25;;;;;;;;;;4990685;28;20126;-79
2022/02/10 11:38:05;;;;;;;26.73;19.35;;;;;;;;;;5014572;28;20033;-79
2022/02/10 11:40:14;;;;;;;36.72;24.92;;;;;;;;;;4997243;28;20467;-79
2022/02/10 11:42:55;;;;;;;35.00;27.55;;;;;;;;;;4992648;28;20096;-78
2022/02/10 12:00:41;;;;;;;30.33;22.88;;;;;;;;;;4971835;28;20145;-78
2022/02/10 12:34:48;;;;;;;13.32;10.82;;;;;;;;;;4933877;29;20047;-77
2022/02/10 14:18:22;;;;;;;49.72;30.38;;;;;;;;;;5026161;28;20022;-80
2022/02/10 14:20:57;;;;;;;44.28;31.88;;;;;;;;;;5007988;28;20091;-77
2022/02/10 14:28:31;;;;;;;37.85;32.08;;;;;;;;;;5011895;28;20120;-77
2022/02/10 14:30:58;;;;;;;41.47;36.83;;;;;;;;;;5012207;28;20034;-77
2022/02/10 14:33:28;;;;;;;38.83;34.92;;;;;;;;;;5019067;28;20018;-78
2022/02/10 15:51:28;;;;;;;127.90;91.50;;;;;;;;;;5035456;28;20052;-84
2022/02/10 16:18:31;;;;;;;242.80;166.48;;;;;;;;;;4974272;28;20125;-81
2022/02/10 16:21:02;;;;;;;228.80;156.85;;;;;;;;;;5029488;28;20014;-82
2022/02/10 16:23:32;;;;;;;186.90;132.13;;;;;;;;;;5014147;28;20022;-80
2022/02/10 16:26:13;;;;;;;201.95;147.13;;;;;;;;;;5013007;28;20438;-82
2022/02/10 16:28:44;;;;;;;191.13;138.30;;;;;;;;;;5017854;28;20022;-86
2022/02/10 16:31:11;;;;;;;157.93;115.90;;;;;;;;;;5016066;28;20111;-83
2022/02/10 16:33:38;;;;;;;194.55;133.10;;;;;;;;;;5016724;28;20468;-86
2022/02/10 16:36:05;;;;;;;167.60;123.47;;;;;;;;;;5014176;28;20423;-83
2022/02/10 16:38:31;;;;;;;178.40;128.70;;;;;;;;;;5015188;28;20029;-86
2022/02/10 16:40:58;;;;;;;219.75;151.98;;;;;;;;;;5016485;28;20025;-83
2022/02/10 16:43:24;;;;;;;297.23;199.57;;;;;;;;;;5030645;28;20029;-84
2022/02/10 16:45:51;;;;;;;199.55;144.73;;;;;;;;;;5013887;28;20018;-87
2022/02/10 16:48:17;;;;;;;185.20;128.45;;;;;;;;;;5030023;28;20384;-83
2022/02/10 16:50:45;;;;;;;164.48;122.63;;;;;;;;;;5016116;28;20466;-85
2022/02/10 16:53:17;;;;;;;147.40;106.25;;;;;;;;;;5020722;28;20017;-85
2022/02/10 16:55:56;;;;;;;135.55;95.97;;;;;;;;;;5012053;28;20022;-86
2022/02/10 17:01:17;;;;;;;116.32;85.07;;;;;;;;;;5027736;28;20106;-83
2022/02/10 17:03:54;;;;;;;136.07;96.25;;;;;;;;;;5015238;28;20022;-88
2022/02/10 17:20:28;;;;;;;87.88;57.67;;;;;;;;;;5029000;28;20035;-88
2022/02/10 17:25:44;;;;;;;69.75;45.50;;;;;;;;;;5043611;28;20052;-86
2022/02/10 17:28:11;;;;;;;88.20;59.95;;;;;;;;;;5015042;28;20013;-89
2022/02/10 17:33:34;;;;;;;;;;;;;;;;;;5031664;28;20032;-94
2022/02/10 17:36:08;;;;;;;73.03;46.72;;;;;;;;;;5020872;28;20008;-93
2022/02/10 17:51:56;;;;;;;116.40;79.63;;;;;;;;;;5032683;28;20084;-90
2022/02/10 17:54:23;;;;;;;105.65;71.90;;;;;;;;;;5016844;28;20033;-86
2022/02/10 17:56:49;;;;;;;110.88;73.25;;;;;;;;;;5013465;28;20514;-86
2022/02/10 17:59:16;;;;;;;87.00;57.75;;;;;;;;;;5011893;28;20041;-84
2022/02/10 18:01:42;;;;;;;81.68;56.60;;;;;;;;;;5015035;28;20029;-87
2022/02/10 18:04:10;;;;;;;81.47;56.47;;;;;;;;;;5006776;28;20057;-88
2022/02/10 18:06:41;;;;;;;92.35;61.30;;;;;;;;;;5013659;28;20075;-84
2022/02/10 18:14:38;;;;;;;74.53;45.00;;;;;;;;;;5025446;28;20543;-86
2022/02/10 18:19:48;;;;;;;90.65;63.22;;;;;;;;;;5030846;28;20121;-87
2022/02/10 18:25:22;;;;;;;126.32;71.93;;;;;;;;;;5024708;28;20062;-86
2022/02/10 18:30:39;;;;;;;102.20;59.03;;;;;;;;;;5039575;28;20029;-88
2022/02/10 19:08:05;;;;;;;54.45;34.40;;;;;;;;;;5032074;28;20033;-85
2022/02/10 19:10:34;;;;;;;53.80;33.53;;;;;;;;;;5013376;28;20017;-85
2022/02/10 19:13:00;;;;;;;53.70;36.90;;;;;;;;;;5031937;28;20038;-87
2022/02/10 19:15:33;;;;;;;56.83;38.45;;;;;;;;;;5014650;28;20042;-85
2022/02/10 19:18:03;;;;;;;68.70;38.65;;;;;;;;;;5004735;28;20084;-86
2022/02/10 19:20:31;;;;;;;63.45;40.75;;;;;;;;;;4994898;28;20061;-87
2022/02/10 19:22:57;;;;;;;65.93;39.83;;;;;;;;;;4994559;28;20018;-87
2022/02/10 19:25:23;;;;;;;61.58;39.63;;;;;;;;;;5003876;28;20112;-87
2022/02/10 19:27:50;;;;;;;65.22;41.20;;;;;;;;;;5009633;28;20029;-85
2022/02/10 19:30:17;;;;;;;73.32;46.17;;;;;;;;;;4998927;28;20401;-85
2022/02/10 19:32:49;;;;;;;92.07;55.53;;;;;;;;;;5015920;28;20436;-94
2022/02/10 19:35:17;;;;;;;96.32;55.55;;;;;;;;;;5013765;28;20018;-85
2022/02/10 19:37:51;;;;;;;108.40;62.53;;;;;;;;;;5010526;28;20041;-94
2022/02/10 19:40:17;;;;;;;90.75;52.38;;;;;;;;;;5008072;28;20025;-91
2022/02/10 19:42:46;;;;;;;67.18;42.47;;;;;;;;;;5017606;28;20021;-89
2022/02/10 19:45:12;;;;;;;63.97;40.50;;;;;;;;;;5016957;28;20139;-89
2022/02/10 19:47:40;;;;;;;77.78;50.38;;;;;;;;;;5010643;28;20034;-85
2022/02/10 19:50:15;;;;;;;69.53;46.65;;;;;;;;;;5000064;28;20080;-79
2022/02/10 19:52:44;;;;;;;79.10;48.60;;;;;;;;;;5001247;28;20101;-79
2022/02/10 19:55:14;;;;;;;68.40;44.97;;;;;;;;;;5010299;28;20417;-77
2022/02/10 19:57:41;;;;;;;75.85;42.88;;;;;;;;;;5023299;28;20025;-79
2022/02/10 20:00:11;;;;;;;47.38;31.75;;;;;;;;;;5026913;28;20113;-78
2022/02/10 20:02:37;;;;;;;68.30;45.58;;;;;;;;;;5013257;28;20026;-77
2022/02/10 20:05:04;;;;;;;69.57;46.53;;;;;;;;;;5030512;28;20021;-78
2022/02/10 20:07:37;;;;;;;93.13;56.70;;;;;;;;;;5030860;28;20369;-76
2022/02/10 20:10:03;;;;;;;82.72;51.28;;;;;;;;;;5029332;28;20037;-79
2022/02/10 20:12:29;;;;;;;102.43;57.65;;;;;;;;;;5013727;28;20033;-77
2022/02/10 20:14:55;;;;;;;80.43;56.00;;;;;;;;;;5013166;28;20021;-78
2022/02/10 20:17:21;;;;;;;95.03;62.60;;;;;;;;;;5033503;28;20014;-76
2022/02/10 20:19:47;;;;;;;107.78;65.35;;;;;;;;;;5012395;28;20060;-78
2022/02/10 20:22:14;;;;;;;73.38;45.13;;;;;;;;;;5033452;28;20468;-77
2022/02/10 20:24:40;;;;;;;84.90;53.40;;;;;;;;;;5013542;28;20067;-76
2022/02/10 20:27:06;;;;;;;86.72;55.92;;;;;;;;;;5015142;28;20108;-76
2022/02/10 20:29:33;;;;;;;66.32;44.72;;;;;;;;;;5013903;28;20032;-76
2022/02/10 20:31:59;;;;;;;74.68;41.85;;;;;;;;;;5015029;28;20488;-76
2022/02/10 20:34:26;;;;;;;69.35;39.85;;;;;;;;;;5013336;28;20055;-78
2022/02/10 20:36:52;;;;;;;69.07;36.33;;;;;;;;;;5030902;28;20520;-77
2022/02/10 20:39:25;;;;;;;73.82;44.10;;;;;;;;;;5029839;28;20033;-78
2022/02/10 20:41:53;;;;;;;69.13;42.45;;;;;;;;;;5030227;28;20017;-76
2022/02/10 20:44:20;;;;;;;69.28;44.83;;;;;;;;;;5013767;28;20034;-76
2022/02/10 20:46:50;;;;;;;71.63;43.90;;;;;;;;;;5032687;28;20102;-76
2022/02/10 20:49:18;;;;;;;64.22;39.60;;;;;;;;;;5032921;28;20041;-76
2022/02/10 20:51:44;;;;;;;62.75;37.63;;;;;;;;;;5014946;28;20026;-77
2022/02/10 20:54:11;;;;;;;61.03;41.53;;;;;;;;;;5015008;28;20349;-76
2022/02/10 20:56:37;;;;;;;69.47;39.28;;;;;;;;;;5032072;28;20026;-78
2022/02/10 20:59:17;;;;;;;67.65;41.38;;;;;;;;;;5031187;28;20113;-78
2022/02/10 21:01:43;;;;;;;52.00;33.45;;;;;;;;;;5031859;28;20024;-77
2022/02/10 21:04:10;;;;;;;38.95;24.35;;;;;;;;;;5032425;28;20041;-78
2022/02/10 21:09:16;;;;;;;48.85;28.13;;;;;;;;;;5031714;28;20051;-78
2022/02/10 21:11:42;;;;;;;49.90;32.20;;;;;;;;;;5032048;28;20132;-77
2022/02/10 21:14:15;;;;;;;48.47;27.58;;;;;;;;;;5030323;28;20021;-77
2022/02/10 21:16:42;;;;;;;48.53;29.33;;;;;;;;;;5012966;28;20415;-77
2022/02/10 21:19:10;;;;;;;40.25;22.95;;;;;;;;;;5011796;28;20045;-77
2022/02/10 21:21:36;;;;;;;46.80;29.17;;;;;;;;;;5032161;28;20010;-76
2022/02/10 21:24:09;;;;;;;53.58;33.20;;;;;;;;;;5032481;28;20097;-77
2022/02/10 21:26:46;;;;;;;58.92;30.73;;;;;;;;;;5011946;28;20017;-76
2022/02/10 21:29:13;;;;;;;62.80;35.03;;;;;;;;;;5014857;28;20025;-75
2022/02/10 21:31:44;;;;;;;55.55;28.38;;;;;;;;;;5014962;28;20038;-76
2022/02/10 21:34:16;;;;;;;44.80;26.67;;;;;;;;;;5014930;28;20422;-76
2022/02/10 21:47:50;;;;;;;51.80;33.10;;;;;;;;;;5031738;28;20032;-77
2022/02/10 21:56:03;;;;;;;63.50;39.03;;;;;;;;;;5031911;28;20049;-78
2022/02/10 21:59:25;;;;;;;60.72;37.53;;;;;;;;;;5031374;28;20124;-78
2022/02/10 22:04:52;;;;;;;58.95;40.33;;;;;;;;;;4961386;28;20102;-79
2022/02/10 22:10:49;;;;;;;70.63;45.35;;;;;;;;;;4970674;28;20046;-81
2022/02/10 22:18:33;;;;;;;112.85;66.78;;;;;;;;;;5017830;28;20037;-79
2022/02/10 22:21:00;;;;;;;130.57;78.43;;;;;;;;;;5031799;28;20029;-79
2022/02/10 22:23:27;;;;;;;152.05;94.82;;;;;;;;;;5031497;28;20014;-79
2022/02/10 22:25:57;;;;;;;186.52;121.10;;;;;;;;;;5032188;28;20025;-78
2022/02/10 22:31:01;;;;;;;209.70;136.68;;;;;;;;;;5031822;28;20116;-76
2022/02/10 22:36:19;;;;;;;206.77;133.73;;;;;;;;;;4994181;28;20392;-76
2022/02/10 22:38:51;;;;;;;238.02;149.98;;;;;;;;;;5031389;28;20010;-76
2022/02/10 22:41:17;;;;;;;233.00;145.57;;;;;;;;;;5031263;28;20388;-76
2022/02/10 22:43:46;;;;;;;327.98;209.13;;;;;;;;;;5014041;28;20025;-76
2022/02/10 22:46:12;;;;;;;224.80;139.15;;;;;;;;;;5012852;28;20494;-78
2022/02/10 22:48:41;;;;;;;210.90;135.00;;;;;;;;;;5027073;28;20077;-75
2022/02/10 22:51:08;;;;;;;229.23;146.63;;;;;;;;;;5013692;28;20080;-77
2022/02/10 22:53:34;;;;;;;263.73;176.88;;;;;;;;;;5013486;28;20499;-75
2022/02/10 22:56:00;;;;;;;248.52;160.77;;;;;;;;;;5031291;28;20476;-78
2022/02/10 22:58:26;;;;;;;246.32;157.50;;;;;;;;;;5012504;28;20068;-77
2022/02/10 23:00:53;;;;;;;247.82;163.35;;;;;;;;;;5031995;28;20028;-77
2022/02/10 23:03:21;;;;;;;239.98;155.07;;;;;;;;;;5035562;28;20029;-79
2022/02/10 23:05:48;;;;;;;242.68;151.15;;;;;;;;;;5035441;28;20341;-77
2022/02/10 23:08:14;;;;;;;177.52;110.97;;;;;;;;;;5017442;28;20067;-75
2022/02/10 23:10:46;;;;;;;197.00;124.25;;;;;;;;;;5017632;28;20018;-76
2022/02/10 23:13:13;;;;;;;257.73;169.38;;;;;;;;;;5034834;28;20407;-76
2022/02/10 23:15:39;;;;;;;205.52;127.88;;;;;;;;;;5034816;28;20100;-76
2022/02/10 23:18:06;;;;;;;204.65;124.22;;;;;;;;;;5034642;28;20022;-77
2022/02/10 23:20:32;;;;;;;219.10;139.00;;;;;;;;;;5035417;28;20025;-76
2022/02/10 23:22:58;;;;;;;141.70;88.97;;;;;;;;;;5016850;28;20017;-77
2022/02/10 23:25:26;;;;;;;158.52;103.43;;;;;;;;;;5033930;28;20057;-77
2022/02/10 23:27:52;;;;;;;156.30;106.50;;;;;;;;;;5029731;28;20120;-76
2022/02/10 23:30:21;;;;;;;182.95;119.03;;;;;;;;;;5025842;28;20032;-76
2022/02/10 23:32:48;;;;;;;187.88;115.97;;;;;;;;;;5034530;28;20068;-77
2022/02/10 23:35:47;;;;;;;161.15;105.78;;;;;;;;;;5015949;28;20357;-77
2022/02/10 23:38:00;;;;;;;167.50;108.55;;;;;;;;;;5032664;28;20052;-76
2022/02/10 23:40:30;;;;;;;142.77;96.55;;;;;;;;;;5011533;28;20476;-77
2022/02/10 23:42:56;;;;;;;167.65;108.80;;;;;;;;;;5031393;28;20032;-77
2022/02/10 23:45:26;;;;;;;183.15;116.47;;;;;;;;;;5033672;28;20044;-76
2022/02/10 23:47:53;;;;;;;182.52;110.32;;;;;;;;;;5032869;28;20009;-76
2022/02/10 23:50:25;;;;;;;193.55;120.22;;;;;;;;;;5015082;28;20057;-77
2022/02/10 23:52:54;;;;;;;197.73;121.45;;;;;;;;;;5032928;28;20030;-76
2022/02/10 23:55:29;;;;;;;200.95;119.60;;;;;;;;;;5015748;28;20032;-76
